Time;durP1;ratioP1;P1;durP2;ratioP2;P2;SDS_P1;SDS_P2;PMS_P1;PMS_P2;Temp;Humidity;BMP_temperature;BMP_pressure;BME280_temperature;BME280_humidity;BME280_pressure;Samples;Min_cycle;Max_cycle;Signal;HPM_P1;HPM_P2
2024/03/11 00:00:33;;;;;;;9.50;6.80;;;;;;;6.91;79.23;98707.63;447144;1240;139343;-60
2024/03/11 00:10:36;;;;;;;11.10;7.20;;;;;;;6.90;79.65;98686.45;447184;1240;139240;-59
2024/03/11 00:20:40;;;;;;;11.80;7.40;;;;;;;6.83;80.26;98683.73;447171;1238;139172;-59
2024/03/11 00:30:44;;;;;;;12.70;8.20;;;;;;;6.71;81.08;98672.86;447106;1240;140190;-59
2024/03/11 00:40:52;;;;;;;14.80;7.70;;;;;;;6.61;81.89;98670.02;447115;1240;139775;-59
2024/03/11 00:50:55;;;;;;;10.40;8.00;;;;;;;6.54;82.87;98667.47;447387;1240;139315;-59
2024/03/11 01:00:59;;;;;;;10.90;7.40;;;;;;;6.47;83.45;98661.11;447802;1240;139781;-58
2024/03/11 01:11:05;;;;;;;8.30;6.90;;;;;;;6.41;84.26;98656.60;447494;1235;139250;-59
2024/03/11 01:21:09;;;;;;;9.60;8.10;;;;;;;6.30;85.46;98658.48;448303;1239;138193;-58
2024/03/11 01:31:12;;;;;;;16.00;9.30;;;;;;;6.17;86.95;98656.85;447497;1238;139448;-59
2024/03/11 01:41:18;;;;;;;10.30;7.50;;;;;;;6.05;88.38;98652.02;447000;1240;139186;-58
2024/03/11 01:51:22;;;;;;;11.60;8.10;;;;;;;5.92;89.83;98647.36;447468;1238;139318;-58
2024/03/11 02:01:27;;;;;;;13.60;8.40;;;;;;;5.75;91.91;98644.71;447254;1240;139017;-57
2024/03/11 02:11:33;;;;;;;14.90;10.30;;;;;;;5.56;94.40;98644.98;447501;1237;139756;-59
2024/03/11 02:21:46;;;;;;;12.50;9.90;;;;;;;5.41;96.94;98620.60;447256;1238;140741;-59
2024/03/11 02:31:49;;;;;;;14.40;10.10;;;;;;;5.27;99.83;98603.73;448197;1237;139365;-58
2024/03/11 02:41:52;;;;;;;11.20;8.50;;;;;;;5.17;100.00;98612.98;447416;1239;139538;-57
2024/03/11 02:51:56;;;;;;;13.20;10.10;;;;;;;5.13;100.00;98592.05;446689;1239;139940;-59
2024/03/11 03:02:01;;;;;;;16.20;11.40;;;;;;;5.11;100.00;98582.07;446793;1239;139344;-58
2024/03/11 03:12:09;;;;;;;13.80;10.70;;;;;;;5.10;100.00;98608.17;446988;1240;140222;-59
2024/03/11 03:22:12;;;;;;;16.00;11.20;;;;;;;5.06;100.00;98620.35;446963;1240;139530;-58
2024/03/11 03:32:19;;;;;;;19.40;12.80;;;;;;;5.00;100.00;98614.14;446590;1241;139427;-60
2024/03/11 03:42:23;;;;;;;15.70;11.80;;;;;;;4.92;100.00;98621.30;446639;1240;139545;-59
2024/03/11 03:52:26;;;;;;;17.80;11.70;;;;;;;4.84;100.00;98614.29;446870;1237;140125;-58
2024/03/11 04:02:29;;;;;;;14.10;11.50;;;;;;;4.75;100.00;98611.52;447076;1236;140022;-60
2024/03/11 04:12:32;;;;;;;19.10;13.70;;;;;;;4.67;100.00;98601.17;446597;1240;139499;-59
2024/03/11 04:22:37;;;;;;;16.70;12.70;;;;;;;4.61;100.00;98597.86;446884;1240;140597;-60
2024/03/11 04:32:43;;;;;;;15.50;11.80;;;;;;;4.58;100.00;98596.48;446988;1236;139004;-60
2024/03/11 04:42:46;;;;;;;18.80;13.30;;;;;;;4.56;100.00;98617.75;447024;1236;140052;-60
2024/03/11 04:52:52;;;;;;;19.40;13.80;;;;;;;4.54;100.00;98591.02;446786;1236;140007;-59
2024/03/11 05:02:59;;;;;;;22.70;13.80;;;;;;;4.51;100.00;98599.65;447691;1241;140008;-57
2024/03/11 05:13:04;;;;;;;16.10;13.00;;;;;;;4.47;100.00;98599.66;446930;1236;139867;-58
2024/03/11 05:23:08;;;;;;;21.40;14.50;;;;;;;4.45;100.00;98604.12;447052;1240;139850;-59
2024/03/11 05:33:16;;;;;;;18.70;14.70;;;;;;;4.43;100.00;98610.48;447007;1236;139475;-59
2024/03/11 05:43:22;;;;;;;20.50;15.60;;;;;;;4.41;100.00;98629.12;447304;1240;139023;-60
2024/03/11 05:53:28;;;;;;;21.70;14.80;;;;;;;4.39;100.00;98646.90;446779;1240;139993;-58
2024/03/11 06:03:33;;;;;;;19.70;13.70;;;;;;;4.36;100.00;98658.15;447159;1236;139477;-59
2024/03/11 06:13:39;;;;;;;22.20;14.50;;;;;;;4.33;100.00;98657.45;446843;1236;139545;-58
2024/03/11 06:23:43;;;;;;;20.10;15.40;;;;;;;4.34;100.00;98661.56;446666;1240;139557;-59
2024/03/11 06:33:50;;;;;;;21.80;17.30;;;;;;;4.39;100.00;98661.31;447213;1239;139649;-58
2024/03/11 06:43:53;;;;;;;21.30;15.50;;;;;;;4.41;100.00;98670.02;446843;1236;333335;-58
2024/03/11 06:53:56;;;;;;;22.40;16.60;;;;;;;4.41;100.00;98675.60;447139;1238;139669;-71
2024/03/11 07:04:00;;;;;;;22.50;16.40;;;;;;;4.39;100.00;98690.57;447010;1236;138993;-70
2024/03/11 07:14:03;;;;;;;27.20;15.40;;;;;;;4.37;100.00;98705.05;446869;1238;140117;-62
2024/03/11 07:24:08;;;;;;;21.80;15.40;;;;;;;4.40;100.00;98712.22;446731;1238;140026;-60
2024/03/11 07:34:11;;;;;;;18.70;15.30;;;;;;;4.40;100.00;98717.42;447553;1236;139446;-60
2024/03/11 07:44:15;;;;;;;23.70;15.90;;;;;;;4.35;100.00;98723.17;446875;1240;139986;-59
2024/03/11 07:54:18;;;;;;;20.30;14.90;;;;;;;4.34;100.00;98721.14;447365;1236;139995;-71
2024/03/11 08:04:24;;;;;;;21.10;15.70;;;;;;;4.42;100.00;98712.42;447524;1236;139486;-72
2024/03/11 08:14:27;;;;;;;21.30;16.20;;;;;;;4.53;100.00;98711.85;446881;1240;139134;-62
2024/03/11 08:24:36;;;;;;;20.30;14.70;;;;;;;4.76;100.00;98708.92;447368;1238;139415;-59
2024/03/11 08:34:41;;;;;;;19.30;15.20;;;;;;;4.93;100.00;98711.08;447152;1240;139618;-60
2024/03/11 08:44:45;;;;;;;20.80;15.70;;;;;;;4.96;100.00;98728.98;446964;1236;139507;-70
2024/03/11 08:54:50;;;;;;;19.90;16.70;;;;;;;4.90;100.00;98719.92;447123;1240;139575;-72
2024/03/11 09:04:53;;;;;;;17.20;14.70;;;;;;;4.89;100.00;98722.42;447273;1236;140427;-72
2024/03/11 09:14:59;;;;;;;19.50;14.90;;;;;;;4.87;100.00;98708.67;447170;1240;139469;-71
2024/03/11 09:25:06;;;;;;;18.00;14.80;;;;;;;4.96;100.00;98705.40;447366;1238;139416;-59
2024/03/11 09:35:09;;;;;;;;;;;;;;;4.99;100.00;98736.09;447204;1240;139487;-57
2024/03/11 09:45:17;;;;;;;20.40;14.40;;;;;;;5.17;100.00;98739.83;447352;1236;125619;-60
2024/03/11 09:55:20;;;;;;;17.80;14.00;;;;;;;5.38;100.00;98748.06;446937;1240;139542;-62
2024/03/11 10:05:23;;;;;;;23.40;16.80;;;;;;;5.43;100.00;98743.41;446927;1241;139619;-58
2024/03/11 10:15:32;;;;;;;16.90;15.10;;;;;;;5.48;100.00;98743.62;447042;1236;139092;-58
2024/03/11 10:25:36;;;;;;;17.60;15.50;;;;;;;5.72;100.00;98747.52;447296;1240;139308;-70
2024/03/11 10:35:43;;;;;;;19.00;14.70;;;;;;;5.82;100.00;98739.48;446954;1236;139386;-71
2024/03/11 10:45:47;;;;;;;23.80;17.80;;;;;;;5.85;100.00;98722.83;447998;1240;139538;-60
2024/03/11 10:55:55;;;;;;;23.50;18.20;;;;;;;5.86;100.00;98720.67;448414;1236;139488;-60
2024/03/11 11:06:09;;;;;;;21.10;17.00;;;;;;;5.89;100.00;98720.51;447240;1240;140013;-58
2024/03/11 11:16:16;;;;;;;21.80;16.80;;;;;;;5.99;100.00;98730.35;447377;1240;140046;-58
2024/03/11 11:26:42;;;;;;;25.10;20.20;;;;;;;6.16;100.00;98732.34;447130;1240;139554;-60
2024/03/11 11:37:01;;;;;;;22.90;19.10;;;;;;;6.14;100.00;98741.13;447104;1239;139724;-59
2024/03/11 11:47:13;;;;;;;24.10;18.80;;;;;;;6.16;100.00;98746.41;447011;1241;140124;-60
2024/03/11 11:57:21;;;;;;;20.40;17.70;;;;;;;5.99;100.00;98751.15;447236;1240;139051;-59
2024/03/11 12:07:25;;;;;;;28.50;19.70;;;;;;;6.03;100.00;98737.93;446981;1241;139270;-57
2024/03/11 12:17:31;;;;;;;24.60;18.60;;;;;;;6.06;100.00;98736.91;447355;1240;139589;-58
2024/03/11 12:27:35;;;;;;;22.40;17.70;;;;;;;5.97;100.00;98753.21;447284;1240;139546;-58
2024/03/11 12:37:39;;;;;;;25.80;19.40;;;;;;;5.73;100.00;98742.58;447528;1240;139578;-70
2024/03/11 12:47:43;;;;;;;26.60;19.80;;;;;;;5.60;100.00;98742.30;447362;1240;139567;-72
2024/03/11 12:58:01;;;;;;;30.30;22.30;;;;;;;5.55;100.00;98735.24;447673;1241;139716;-60
2024/03/11 13:08:09;;;;;;;24.00;19.80;;;;;;;5.59;100.00;98741.16;447466;1240;139584;-60
2024/03/11 13:18:14;;;;;;;21.30;18.00;;;;;;;5.57;100.00;98740.36;447401;1240;139814;-59
2024/03/11 13:28:18;;;;;;;25.40;21.60;;;;;;;5.57;100.00;98741.23;447786;1240;139614;-59
2024/03/11 13:38:23;;;;;;;24.30;18.00;;;;;;;5.56;100.00;98747.37;447733;1241;140670;-71
2024/03/11 13:48:28;;;;;;;23.60;18.00;;;;;;;5.53;100.00;98744.60;447869;1240;139622;-73
2024/03/11 13:58:32;;;;;;;26.20;19.60;;;;;;;5.52;100.00;98744.84;447584;1240;139905;-72
2024/03/11 14:08:36;;;;;;;23.40;18.80;;;;;;;5.44;100.00;98735.00;447569;1237;140055;-73
2024/03/11 14:18:40;;;;;;;26.70;21.10;;;;;;;5.41;100.00;98727.73;447471;1240;139438;-59
2024/03/11 14:28:46;;;;;;;25.40;19.90;;;;;;;5.33;100.00;98741.02;447174;1240;140082;-58
2024/03/11 14:38:51;;;;;;;27.80;20.80;;;;;;;5.25;100.00;98738.54;447209;1240;139518;-58
2024/03/11 14:48:54;;;;;;;24.60;20.50;;;;;;;5.18;100.00;98748.43;447279;1240;140305;-60
2024/03/11 14:58:57;;;;;;;26.80;21.80;;;;;;;5.16;100.00;98754.28;447341;1241;139515;-58
2024/03/11 15:09:04;;;;;;;27.40;22.20;;;;;;;5.16;100.00;98759.98;447439;1239;138996;-73
2024/03/11 15:19:10;;;;;;;26.50;21.90;;;;;;;5.16;100.00;98765.19;447146;1236;139910;-73
2024/03/11 15:29:14;;;;;;;28.10;19.90;;;;;;;5.14;100.00;98759.05;447630;1241;139777;-60
2024/03/11 15:39:22;;;;;;;33.60;25.30;;;;;;;5.13;100.00;98763.27;447309;1240;139380;-60
2024/03/11 15:49:25;;;;;;;24.60;20.70;;;;;;;5.10;100.00;98776.30;447058;1240;139537;-59
2024/03/11 15:59:32;;;;;;;26.80;22.10;;;;;;;5.08;100.00;98768.61;448446;1240;139074;-61
2024/03/11 16:20:19;;;;;;;40.30;28.60;;;;;;;5.09;100.00;98772.52;444334;1246;139683;-61
2024/03/11 16:30:25;;;;;;;32.60;23.80;;;;;;;5.10;100.00;98786.89;444314;1242;140185;-60
2024/03/11 16:40:29;;;;;;;26.50;22.00;;;;;;;5.08;100.00;98790.42;444861;1246;139675;-60
2024/03/11 16:50:32;;;;;;;32.00;22.20;;;;;;;5.07;100.00;98791.73;446972;1241;139390;-74
2024/03/11 17:00:36;;;;;;;27.40;22.50;;;;;;;5.08;100.00;98801.23;447111;1240;139499;-72
2024/03/11 17:10:40;;;;;;;32.50;23.60;;;;;;;5.08;100.00;98802.06;447377;1241;139756;-59
2024/03/11 17:20:50;;;;;;;31.90;23.60;;;;;;;5.09;100.00;98805.16;447307;1240;139736;-59
2024/03/11 17:30:54;;;;;;;35.70;24.60;;;;;;;5.10;100.00;98805.96;447332;1241;139746;-58
2024/03/11 17:40:57;;;;;;;34.00;25.20;;;;;;;5.11;100.00;98802.60;447136;1239;139817;-72
2024/03/11 17:51:05;;;;;;;33.50;24.30;;;;;;;5.12;100.00;98803.59;447813;1240;139833;-61
2024/03/11 18:01:11;;;;;;;38.00;25.30;;;;;;;5.13;100.00;98806.11;447498;1240;139022;-74
2024/03/11 18:11:15;;;;;;;29.90;23.00;;;;;;;5.15;100.00;98812.61;447043;1239;139185;-72
2024/03/11 18:21:19;;;;;;;37.30;26.10;;;;;;;5.15;100.00;98809.16;447275;1241;139044;-60
2024/03/11 18:31:22;;;;;;;30.80;23.90;;;;;;;5.14;100.00;98811.27;447055;1240;139079;-58
2024/03/11 18:41:27;;;;;;;39.50;26.20;;;;;;;5.13;100.00;98816.00;445226;1240;2374109;-61
2024/03/11 18:51:35;;;;;;;33.50;24.70;;;;;;;5.12;100.00;98820.77;446966;1241;139171;-59
2024/03/11 19:01:40;;;;;;;38.00;25.40;;;;;;;5.11;100.00;98820.45;447071;1240;139328;-60
2024/03/11 19:11:45;;;;;;;31.90;23.60;;;;;;;5.10;100.00;98821.23;446838;1240;139984;-61
2024/03/11 19:21:48;;;;;;;36.10;25.00;;;;;;;5.07;100.00;98820.33;447382;1237;139201;-59
2024/03/11 19:31:52;;;;;;;36.60;23.50;;;;;;;5.06;100.00;98817.27;447088;1241;139299;-58
2024/03/11 19:42:11;;;;;;;36.10;24.90;;;;;;;5.05;100.00;98827.55;447380;1240;139477;-57
2024/03/11 19:53:02;;;;;;;31.90;22.90;;;;;;;5.04;100.00;98832.81;448283;1236;139178;-59
2024/03/11 20:03:44;;;;;;;34.70;23.60;;;;;;;5.02;100.00;98836.71;447177;1239;140155;-73
2024/03/11 20:14:16;;;;;;;36.90;24.50;;;;;;;5.01;100.00;98838.14;447079;1240;139195;-72
2024/03/11 20:24:53;;;;;;;38.30;23.20;;;;;;;4.99;100.00;98838.63;446883;1241;140442;-61
2024/03/11 20:34:59;;;;;;;37.80;25.80;;;;;;;4.95;100.00;98840.39;446775;1239;140073;-61
2024/03/11 20:45:07;;;;;;;27.30;22.60;;;;;;;4.91;100.00;98839.36;446752;1240;139513;-60
2024/03/11 20:55:10;;;;;;;37.80;26.40;;;;;;;4.90;100.00;98841.86;447038;1240;139492;-60
2024/03/11 21:05:16;;;;;;;30.60;22.70;;;;;;;4.89;100.00;98837.05;448498;1237;139798;-59
2024/03/11 21:15:22;;;;;;;29.60;22.50;;;;;;;4.88;100.00;98838.15;446755;1238;138438;-59
2024/03/11 21:25:27;;;;;;;30.50;23.40;;;;;;;4.87;100.00;98844.83;447088;1238;139439;-60
2024/03/11 21:35:33;;;;;;;27.50;19.50;;;;;;;4.86;100.00;98846.09;446608;1239;139803;-59
2024/03/11 21:45:37;;;;;;;30.10;20.60;;;;;;;4.84;100.00;98844.27;446630;1238;139720;-60
2024/03/11 21:55:41;;;;;;;30.80;21.50;;;;;;;4.83;100.00;98840.84;446677;1241;140699;-60
2024/03/11 22:05:45;;;;;;;26.00;20.10;;;;;;;4.81;100.00;98843.06;446631;1236;140044;-60
2024/03/11 22:15:50;;;;;;;27.80;21.00;;;;;;;4.79;100.00;98845.04;447158;1240;139653;-60
2024/03/11 22:25:54;;;;;;;26.40;19.80;;;;;;;4.79;100.00;98837.95;446462;1236;139694;-61
2024/03/11 22:35:57;;;;;;;24.50;20.20;;;;;;;4.79;100.00;98835.85;446865;1240;140624;-74
2024/03/11 22:46:00;;;;;;;28.00;21.60;;;;;;;4.80;100.00;98828.04;446676;1239;139573;-74
2024/03/11 22:56:08;;;;;;;24.50;20.80;;;;;;;4.81;100.00;98819.08;446729;1240;140151;-61
2024/03/11 23:06:15;;;;;;;28.30;20.00;;;;;;;4.82;100.00;98810.19;446811;1239;139885;-60
2024/03/11 23:16:19;;;;;;;25.90;19.90;;;;;;;4.82;100.00;98809.99;446742;1236;140532;-58
2024/03/11 23:26:26;;;;;;;21.80;18.20;;;;;;;4.83;100.00;98819.14;447065;1235;140181;-58
2024/03/11 23:36:30;;;;;;;23.60;17.70;;;;;;;4.83;100.00;98821.75;446557;1240;139443;-59
2024/03/11 23:46:35;;;;;;;25.70;19.80;;;;;;;4.85;100.00;98823.59;446763;1240;140038;-59
2024/03/11 23:56:42;;;;;;;;;;;;;;;4.85;100.00;98822.73;446749;1238;139356;-60
